createdAt,value
2023-03-12T00:01:18.054Z,6.13
2023-03-12T00:03:45.053Z,5.65
2023-03-12T00:06:12.587Z,6.03
2023-03-12T00:08:40.527Z,4.82
2023-03-12T00:11:10.107Z,4.85
2023-03-12T00:13:37.028Z,4.65
2023-03-12T00:16:19.117Z,5.25
2023-03-12T00:18:51.276Z,5.53
2023-03-12T00:21:18.981Z,6.78
2023-03-12T00:23:47.642Z,4.90
2023-03-12T00:26:14.719Z,5.40
2023-03-12T00:28:42.510Z,5.97
2023-03-12T00:31:24.745Z,4.47
2023-03-12T00:33:51.559Z,5.00
2023-03-12T00:36:21.382Z,5.63
2023-03-12T00:38:48.290Z,5.70
2023-03-12T00:41:15.151Z,5.38
2023-03-12T00:43:41.965Z,6.22
2023-03-12T00:46:10.151Z,5.43
2023-03-12T00:48:37.456Z,5.70
2023-03-12T00:51:04.918Z,6.93
2023-03-12T00:53:31.822Z,6.60
2023-03-12T00:56:01.245Z,5.90
2023-03-12T00:58:27.984Z,6.85
2023-03-12T01:00:57.278Z,5.10
2023-03-12T01:03:24.384Z,6.15
2023-03-12T01:05:56.437Z,5.47
2023-03-12T01:08:26.454Z,5.60
2023-03-12T01:10:53.507Z,5.10
2023-03-12T01:13:20.624Z,5.70
2023-03-12T01:15:47.514Z,5.90
2023-03-12T01:18:14.568Z,5.28
2023-03-12T01:20:41.584Z,5.22
2023-03-12T01:23:09.230Z,5.25
2023-03-12T01:25:36.705Z,5.55
2023-03-12T01:28:03.573Z,4.97
2023-03-12T01:30:30.549Z,5.05
2023-03-12T01:32:57.365Z,4.88
2023-03-12T01:35:24.986Z,4.85
2023-03-12T01:37:52.464Z,4.38
2023-03-12T01:40:21.631Z,3.40
2023-03-12T01:42:56.712Z,3.72
2023-03-12T01:46:14.752Z,3.35
2023-03-12T01:48:49.098Z,3.42
2023-03-12T01:51:18.126Z,3.63
2023-03-12T01:53:49.656Z,3.45
2023-03-12T01:56:19.840Z,3.50
2023-03-12T01:58:53.140Z,3.65
2023-03-12T02:01:22.327Z,4.07
2023-03-12T02:03:53.587Z,2.65
2023-03-12T02:06:29.573Z,3.28
2023-03-12T02:08:59.616Z,3.28
2023-03-12T02:11:26.472Z,3.83
2023-03-12T02:13:53.484Z,4.05
2023-03-12T02:16:20.542Z,2.95
2023-03-12T02:18:50.710Z,3.33
2023-03-12T02:21:24.934Z,3.90
2023-03-12T02:24:14.778Z,3.10
2023-03-12T02:26:42.301Z,2.53
2023-03-12T02:29:10.679Z,2.55
2023-03-12T02:31:43.647Z,3.05
2023-03-12T02:34:10.907Z,2.53
2023-03-12T02:36:38.024Z,3.00
2023-03-12T02:39:06.074Z,2.60
2023-03-12T02:41:36.509Z,2.85
2023-03-12T02:44:09.446Z,3.35
2023-03-12T02:46:49.224Z,2.80
2023-03-12T02:49:18.553Z,3.15
2023-03-12T02:51:48.974Z,3.05
2023-03-12T02:54:18.989Z,3.00
2023-03-12T02:56:46.105Z,3.05
2023-03-12T02:59:14.595Z,2.65
2023-03-12T03:01:43.450Z,2.78
2023-03-12T03:04:11.771Z,3.20
2023-03-12T03:06:41.424Z,2.65
2023-03-12T03:09:08.165Z,2.63
2023-03-12T03:11:35.693Z,2.53
2023-03-12T03:14:04.711Z,2.80
2023-03-12T03:16:31.694Z,2.17
2023-03-12T03:18:59.002Z,2.15
2023-03-12T03:21:26.259Z,2.55
2023-03-12T03:23:52.968Z,2.28
2023-03-12T03:26:22.465Z,2.42
2023-03-12T03:28:49.470Z,2.30
2023-03-12T03:31:16.932Z,2.60
2023-03-12T03:33:44.565Z,2.60
2023-03-12T03:36:15.034Z,2.13
2023-03-12T03:38:50.689Z,4.00
2023-03-12T03:41:19.534Z,2.85
2023-03-12T03:43:47.085Z,3.15
2023-03-12T03:46:16.253Z,3.17
2023-03-12T03:48:46.885Z,3.03
2023-03-12T03:51:14.374Z,2.35
2023-03-12T03:53:44.870Z,2.85
2023-03-12T03:56:17.978Z,2.38
2023-03-12T03:58:47.991Z,2.83
2023-03-12T04:01:16.665Z,2.20
2023-03-12T04:03:44.847Z,2.20
2023-03-12T04:06:12.295Z,1.75
2023-03-12T04:08:40.354Z,2.30
2023-03-12T04:11:14.936Z,2.55
2023-03-12T04:13:42.911Z,2.05
2023-03-12T04:16:11.110Z,1.95
2023-03-12T04:18:38.180Z,2.00
2023-03-12T04:21:07.715Z,1.98
2023-03-12T04:23:35.394Z,1.77
2023-03-12T04:26:02.507Z,1.90
2023-03-12T04:28:30.121Z,1.92
2023-03-12T04:31:01.977Z,1.83
2023-03-12T04:33:37.622Z,1.70
2023-03-12T04:36:06.675Z,1.52
2023-03-12T04:38:35.631Z,1.33
2023-03-12T04:41:06.053Z,1.90
2023-03-12T04:43:33.954Z,1.83
2023-03-12T04:46:01.515Z,1.20
2023-03-12T04:48:29.155Z,1.83
2023-03-12T04:50:56.481Z,2.22
2023-03-12T04:53:23.999Z,1.60
2023-03-12T04:55:51.469Z,1.80
2023-03-12T04:58:19.299Z,1.80
2023-03-12T05:00:47.567Z,1.30
2023-03-12T05:03:15.070Z,1.58
2023-03-12T05:05:42.700Z,1.75
2023-03-12T05:08:10.112Z,1.40
2023-03-12T05:10:38.554Z,1.67
2023-03-12T05:13:18.128Z,2.07
2023-03-12T05:15:50.671Z,1.67
2023-03-12T05:18:20.499Z,1.80
2023-03-12T05:20:57.315Z,1.35
2023-03-12T05:23:24.559Z,1.55
2023-03-12T05:25:51.586Z,1.63
2023-03-12T05:28:20.126Z,1.88
2023-03-12T05:30:47.197Z,1.60
2023-03-12T05:33:14.202Z,1.75
2023-03-12T05:35:40.936Z,2.13
2023-03-12T05:38:07.688Z,1.67
2023-03-12T05:40:34.342Z,1.92
2023-03-12T05:43:01.106Z,2.53
2023-03-12T05:45:28.138Z,2.75
2023-03-12T05:47:58.558Z,2.25
2023-03-12T05:50:27.549Z,3.20
2023-03-12T05:52:54.474Z,3.15
2023-03-12T05:55:21.658Z,2.88
2023-03-12T05:57:48.567Z,2.25
2023-03-12T06:00:15.982Z,2.35
2023-03-12T06:02:50.961Z,2.15
2023-03-12T06:05:17.785Z,2.38
2023-03-12T06:07:44.558Z,2.00
2023-03-12T06:10:11.938Z,3.20
2023-03-12T06:12:39.031Z,3.00
2023-03-12T06:15:06.817Z,1.65
2023-03-12T06:17:33.721Z,2.63
2023-03-12T06:20:00.488Z,2.25
2023-03-12T06:22:28.894Z,2.78
2023-03-12T06:24:55.655Z,2.50
2023-03-12T06:27:22.369Z,1.80
2023-03-12T06:29:49.398Z,1.80
2023-03-12T06:32:16.350Z,2.67
2023-03-12T06:34:43.101Z,2.17
2023-03-12T06:37:10.756Z,2.17
2023-03-12T06:39:37.909Z,2.45
2023-03-12T06:42:05.587Z,1.85
2023-03-12T06:44:32.506Z,1.92
2023-03-12T06:46:59.344Z,1.88
2023-03-12T06:49:27.439Z,1.75
2023-03-12T06:51:55.904Z,1.42
2023-03-12T06:54:22.621Z,1.60
2023-03-12T06:56:49.405Z,1.67
2023-03-12T06:59:16.159Z,2.20
2023-03-12T07:01:43.030Z,1.60
2023-03-12T07:04:09.664Z,2.80
2023-03-12T07:06:36.381Z,2.13
2023-03-12T07:09:05.085Z,2.70
2023-03-12T07:11:32.214Z,2.08
2023-03-12T07:13:58.990Z,1.90
2023-03-12T07:16:25.629Z,2.47
2023-03-12T07:18:52.704Z,2.17
2023-03-12T07:21:23.809Z,2.78
2023-03-12T07:23:51.497Z,1.80
2023-03-12T07:26:19.061Z,2.70
2023-03-12T07:28:48.649Z,2.65
2023-03-12T07:31:15.355Z,3.38
2023-03-12T07:33:42.274Z,2.50
2023-03-12T07:36:09.237Z,4.10
2023-03-12T07:38:36.151Z,3.72
2023-03-12T07:41:02.935Z,3.03
2023-03-12T07:43:29.826Z,3.17
2023-03-12T07:45:57.004Z,3.05
2023-03-12T07:48:24.152Z,7.75
2023-03-12T07:50:51.014Z,3.10
2023-03-12T07:53:20.387Z,3.75
2023-03-12T07:55:48.385Z,2.83
2023-03-12T07:58:16.320Z,2.80
2023-03-12T08:00:43.196Z,2.88
2023-03-12T08:03:10.433Z,2.67
2023-03-12T08:05:37.514Z,3.40
2023-03-12T08:08:04.854Z,3.25
2023-03-12T08:10:31.854Z,3.20
2023-03-12T08:13:01.353Z,3.05
2023-03-12T08:15:28.202Z,2.50
2023-03-12T08:17:54.956Z,3.47
2023-03-12T08:20:21.709Z,3.20
2023-03-12T08:22:48.613Z,2.83
2023-03-12T08:25:16.245Z,3.30
2023-03-12T08:27:43.144Z,3.33
2023-03-12T08:30:10.992Z,3.30
2023-03-12T08:32:39.021Z,5.63
2023-03-12T08:35:06.255Z,4.07
2023-03-12T08:37:33.163Z,4.82
2023-03-12T08:40:00.494Z,3.08
2023-03-12T08:42:27.392Z,3.58
2023-03-12T08:44:54.342Z,3.72
2023-03-12T08:47:21.147Z,4.82
2023-03-12T08:49:48.166Z,3.92
2023-03-12T08:52:15.101Z,3.22
2023-03-12T08:54:42.134Z,4.35
2023-03-12T08:57:09.129Z,3.38
2023-03-12T08:59:36.281Z,3.03
2023-03-12T09:02:03.338Z,2.78
2023-03-12T09:04:32.423Z,3.53
2023-03-12T09:07:01.408Z,2.00
2023-03-12T09:09:28.208Z,3.47
2023-03-12T09:11:57.314Z,3.30
2023-03-12T09:17:11.200Z,3.20
2023-03-12T09:19:39.844Z,4.10
2023-03-12T09:22:06.652Z,4.00
2023-03-12T09:24:33.517Z,4.10
2023-03-12T09:27:00.338Z,4.30
2023-03-12T09:29:27.255Z,4.40
2023-03-12T09:31:54.569Z,4.95
2023-03-12T09:34:22.868Z,4.32
2023-03-12T09:36:50.123Z,3.65
2023-03-12T09:39:17.579Z,4.07
2023-03-12T09:41:47.857Z,4.15
2023-03-12T09:44:39.979Z,4.32
2023-03-12T09:47:19.203Z,4.78
2023-03-12T09:49:57.324Z,3.60
2023-03-12T09:52:43.515Z,5.05
2023-03-12T09:55:16.471Z,6.22
2023-03-12T09:57:44.970Z,5.55
2023-03-12T10:00:27.550Z,4.50
2023-03-12T10:02:58.495Z,4.38
2023-03-12T10:06:07.014Z,4.95
2023-03-12T10:08:37.213Z,4.93
2023-03-12T10:11:15.029Z,4.95
2023-03-12T10:14:03.917Z,5.90
2023-03-12T10:16:30.856Z,7.15
2023-03-12T10:19:00.935Z,6.15
2023-03-12T10:21:49.489Z,5.72
2023-03-12T10:24:31.776Z,5.82
2023-03-12T10:26:59.707Z,5.68
2023-03-12T10:29:33.144Z,5.38
2023-03-12T10:32:05.653Z,5.57
2023-03-12T10:34:43.206Z,6.25
2023-03-12T10:37:28.445Z,6.15
2023-03-12T10:39:55.956Z,7.78
2023-03-12T10:42:25.596Z,5.47
2023-03-12T10:47:36.982Z,5.55
2023-03-12T10:50:24.285Z,7.13
2023-03-12T10:52:53.547Z,6.10
2023-03-12T10:55:32.505Z,6.65
2023-03-12T10:57:59.772Z,6.47
2023-03-12T11:00:32.826Z,6.72
2023-03-12T11:03:08.985Z,6.47
2023-03-12T11:05:52.349Z,5.78
2023-03-12T11:08:21.999Z,7.35
2023-03-12T11:10:50.801Z,7.20
2023-03-12T11:13:35.826Z,6.55
2023-03-12T11:16:31.530Z,6.25
2023-03-12T11:19:04.193Z,6.47
2023-03-12T11:21:37.497Z,6.38
2023-03-12T11:24:09.113Z,5.50
2023-03-12T11:26:52.075Z,6.32
2023-03-12T11:29:33.315Z,5.15
2023-03-12T11:32:13.349Z,5.78
2023-03-12T11:34:40.128Z,4.50
2023-03-12T11:37:21.315Z,5.38
2023-03-12T11:40:16.458Z,4.97
2023-03-12T11:43:11.276Z,4.63
2023-03-12T11:45:47.091Z,6.30
2023-03-12T11:48:45.074Z,5.03
2023-03-12T11:51:34.582Z,6.05
2023-03-12T11:57:08.451Z,4.82
2023-03-12T11:59:38.095Z,4.05
2023-03-12T12:02:17.000Z,4.47
2023-03-12T12:04:53.492Z,4.25
2023-03-12T12:07:55.676Z,4.00
2023-03-12T12:10:26.796Z,4.28
2023-03-12T12:12:59.629Z,4.05
2023-03-12T12:15:49.088Z,4.65
2023-03-12T12:18:25.765Z,4.28
2023-03-12T12:21:08.041Z,4.95
2023-03-12T12:23:46.920Z,5.75
2023-03-12T12:26:38.794Z,5.32
2023-03-12T12:29:25.366Z,5.50
2023-03-12T12:31:58.097Z,5.38
2023-03-12T12:34:37.515Z,5.05
2023-03-12T12:37:22.781Z,5.53
2023-03-12T12:40:08.956Z,5.53
2023-03-12T12:42:47.585Z,5.45
2023-03-12T12:45:17.122Z,5.23
2023-03-12T12:47:55.468Z,3.72
2023-03-12T12:50:27.277Z,4.82
2023-03-12T12:53:13.857Z,4.95
2023-03-12T12:55:50.407Z,4.97
2023-03-12T12:58:26.100Z,5.28
2023-03-12T13:01:01.682Z,5.28
2023-03-12T13:03:30.888Z,7.75
2023-03-12T13:06:09.233Z,3.65
2023-03-12T13:09:22.360Z,6.35
2023-03-12T13:11:56.711Z,5.35
2023-03-12T13:14:41.563Z,5.13
2023-03-12T13:17:39.623Z,4.60
2023-03-12T13:20:11.226Z,4.47
2023-03-12T13:22:48.768Z,4.30
2023-03-12T13:25:15.998Z,3.15
2023-03-12T13:27:46.152Z,2.13
2023-03-12T13:30:32.759Z,2.53
2023-03-12T13:33:02.889Z,2.00
2023-03-12T13:35:39.500Z,1.65
2023-03-12T13:38:13.265Z,1.65
2023-03-12T13:40:55.193Z,1.50
2023-03-12T13:43:46.790Z,2.53
2023-03-12T13:46:16.628Z,1.60
2023-03-12T13:48:48.961Z,1.83
2023-03-12T13:51:21.851Z,2.25
2023-03-12T13:53:53.139Z,1.45
2023-03-12T13:56:26.053Z,1.98
2023-03-12T13:59:03.453Z,2.40
2023-03-12T14:01:54.511Z,1.92
2023-03-12T14:04:25.926Z,2.15
2023-03-12T14:07:13.463Z,1.75
2023-03-12T14:10:08.313Z,1.98
2023-03-12T14:12:50.951Z,3.05
2023-03-12T14:15:36.550Z,1.33
2023-03-12T14:18:22.509Z,2.78
2023-03-12T14:21:00.853Z,1.55
2023-03-12T14:23:37.118Z,1.58
2023-03-12T14:26:06.715Z,1.70
2023-03-12T14:28:41.634Z,1.90
2023-03-12T14:31:20.067Z,1.05
2023-03-12T14:34:10.200Z,2.47
2023-03-12T14:36:47.259Z,1.63
2023-03-12T14:39:39.708Z,1.55
2023-03-12T14:42:08.034Z,1.50
2023-03-12T14:44:39.851Z,1.90
2023-03-12T14:47:19.956Z,1.83
2023-03-12T14:49:47.252Z,1.48
2023-03-12T14:52:21.373Z,1.75
2023-03-12T14:55:04.226Z,2.65
2023-03-12T14:57:31.165Z,1.65
2023-03-12T15:00:00.266Z,1.77
2023-03-12T15:02:30.139Z,1.45
2023-03-12T15:05:00.397Z,1.73
2023-03-12T15:07:31.998Z,2.30
2023-03-12T15:10:06.167Z,1.63
2023-03-12T15:12:40.674Z,2.63
2023-03-12T15:15:29.668Z,2.97
2023-03-12T15:17:59.786Z,2.92
2023-03-12T15:20:27.314Z,2.40
2023-03-12T15:22:57.510Z,2.78
2023-03-12T15:25:30.521Z,2.53
2023-03-12T15:28:26.633Z,2.97
2023-03-12T15:31:10.839Z,2.70
2023-03-12T15:33:44.685Z,3.10
2023-03-12T15:36:14.951Z,2.22
2023-03-12T15:39:12.738Z,3.60
2023-03-12T15:41:49.109Z,2.78
2023-03-12T15:44:27.368Z,2.92
2023-03-12T15:46:58.106Z,2.72
2023-03-12T15:49:30.166Z,3.10
2023-03-12T15:52:26.451Z,2.47
2023-03-12T15:55:15.089Z,2.90
2023-03-12T15:57:51.252Z,2.63
2023-03-12T16:00:24.654Z,3.15
2023-03-12T16:03:08.280Z,2.58
2023-03-12T16:05:41.218Z,1.95
2023-03-12T16:08:34.348Z,2.95
2023-03-12T16:11:01.098Z,2.28
2023-03-12T16:13:31.374Z,3.00
2023-03-12T16:16:01.026Z,2.75
2023-03-12T16:18:32.779Z,2.42
2023-03-12T16:21:00.265Z,1.95
2023-03-12T16:23:27.224Z,2.90
2023-03-12T16:25:56.475Z,2.78
2023-03-12T16:28:28.780Z,2.38
2023-03-12T16:30:55.646Z,2.00
2023-03-12T16:33:24.796Z,4.22
2023-03-12T16:35:52.692Z,3.22
2023-03-12T16:38:22.047Z,2.05
2023-03-12T16:40:53.019Z,2.28
2023-03-12T16:43:26.758Z,2.25
2023-03-12T16:45:54.285Z,1.90
2023-03-12T16:48:24.396Z,3.67
2023-03-12T16:50:53.972Z,3.40
2023-03-12T16:53:21.743Z,6.72
2023-03-12T16:55:53.270Z,3.65
2023-03-12T16:58:22.025Z,2.95
2023-03-12T17:00:50.928Z,3.65
2023-03-12T17:03:42.142Z,2.78
2023-03-12T17:06:18.825Z,3.05
2023-03-12T17:08:46.046Z,4.63
2023-03-12T17:11:17.599Z,1.75
2023-03-12T17:13:47.331Z,2.35
2023-03-12T17:18:41.642Z,3.05
2023-03-12T17:21:12.390Z,2.67
2023-03-12T17:23:39.538Z,2.40
2023-03-12T17:26:07.540Z,3.85
2023-03-12T17:28:34.254Z,3.92
2023-03-12T17:31:05.132Z,3.13
2023-03-12T17:33:34.930Z,2.28
2023-03-12T17:36:07.748Z,2.70
2023-03-12T17:38:44.106Z,3.33
2023-03-12T17:41:25.427Z,3.13
2023-03-12T17:43:53.898Z,3.25
2023-03-12T17:46:21.428Z,3.97
2023-03-12T17:48:50.901Z,2.92
2023-03-12T17:51:18.076Z,3.35
2023-03-12T17:53:44.949Z,3.38
2023-03-12T17:56:12.780Z,4.13
2023-03-12T17:58:40.074Z,3.22
2023-03-12T18:01:07.348Z,3.50
2023-03-12T18:03:34.140Z,4.97
2023-03-12T18:06:00.908Z,4.72
2023-03-12T18:08:27.749Z,4.13
2023-03-12T18:10:55.182Z,3.17
2023-03-12T18:13:21.922Z,3.53
2023-03-12T18:15:58.443Z,3.72
2023-03-12T18:18:26.907Z,4.35
2023-03-12T18:20:54.254Z,4.30
2023-03-12T18:23:21.183Z,3.90
2023-03-12T18:25:48.042Z,3.50
2023-03-12T18:28:15.403Z,5.63
2023-03-12T18:30:47.064Z,9.23
2023-03-12T18:33:14.689Z,10.55
2023-03-12T18:35:43.550Z,10.63
2023-03-12T18:38:11.061Z,8.23
2023-03-12T18:40:38.178Z,10.27
2023-03-12T18:43:09.246Z,10.10
2023-03-12T18:45:35.997Z,8.93
2023-03-12T18:48:03.021Z,9.30
2023-03-12T18:50:30.190Z,6.70
2023-03-12T18:52:57.154Z,7.80
2023-03-12T18:55:26.404Z,9.60
2023-03-12T18:57:53.160Z,6.55
2023-03-12T19:00:22.336Z,7.38
2023-03-12T19:02:49.467Z,8.30
2023-03-12T19:05:16.787Z,7.40
2023-03-12T19:07:44.231Z,6.95
2023-03-12T19:10:14.961Z,7.43
2023-03-12T19:12:52.121Z,6.63
2023-03-12T19:15:24.456Z,4.95
2023-03-12T19:17:51.382Z,6.00
2023-03-12T19:20:18.494Z,7.15
2023-03-12T19:22:45.175Z,5.70
2023-03-12T19:25:12.154Z,8.07
2023-03-12T19:27:40.261Z,5.35
2023-03-12T19:30:07.651Z,4.47
2023-03-12T19:32:43.309Z,4.00
2023-03-12T19:35:12.612Z,4.22
2023-03-12T19:37:39.463Z,5.00
2023-03-12T19:40:07.380Z,5.78
2023-03-12T19:42:35.396Z,4.38
2023-03-12T19:45:02.352Z,4.82
2023-03-12T19:47:29.566Z,3.45
2023-03-12T19:49:56.355Z,5.60
2023-03-12T19:52:23.174Z,6.10
2023-03-12T19:55:03.385Z,3.45
2023-03-12T19:57:34.761Z,3.75
2023-03-12T20:00:01.632Z,3.58
2023-03-12T20:02:49.272Z,5.38
2023-03-12T20:05:16.206Z,4.00
2023-03-12T20:07:44.273Z,3.55
2023-03-12T20:10:12.939Z,4.53
2023-03-12T20:12:39.760Z,3.80
2023-03-12T20:15:07.176Z,4.00
2023-03-12T20:17:33.914Z,3.35
2023-03-12T20:20:01.464Z,3.83
2023-03-12T20:22:28.385Z,4.18
2023-03-12T20:24:55.117Z,4.15
2023-03-12T20:27:22.001Z,3.72
2023-03-12T20:29:49.920Z,4.82
2023-03-12T20:32:18.556Z,3.25
2023-03-12T20:34:47.801Z,3.90
2023-03-12T20:37:14.670Z,3.70
2023-03-12T20:39:41.421Z,4.85
2023-03-12T20:42:08.171Z,5.25
2023-03-12T20:44:35.202Z,4.50
2023-03-12T20:47:01.937Z,3.72
2023-03-12T20:49:28.777Z,3.15
2023-03-12T20:51:55.937Z,3.67
2023-03-12T20:54:22.915Z,3.67
2023-03-12T20:56:49.697Z,4.57
2023-03-12T20:59:16.552Z,3.85
2023-03-12T21:01:43.514Z,3.97
2023-03-12T21:04:10.451Z,3.60
2023-03-12T21:06:37.150Z,5.22
2023-03-12T21:09:06.293Z,4.45
2023-03-12T21:11:37.120Z,4.18
2023-03-12T21:14:03.832Z,3.35
2023-03-12T21:16:31.511Z,3.90
2023-03-12T21:19:03.255Z,4.03
2023-03-12T21:21:36.297Z,3.22
2023-03-12T21:24:03.281Z,3.67
2023-03-12T21:26:31.109Z,2.50
2023-03-12T21:28:57.926Z,2.95
2023-03-12T21:34:33.145Z,2.97
2023-03-12T21:36:59.983Z,4.72
2023-03-12T21:39:27.265Z,4.38
2023-03-12T21:42:00.007Z,3.85
2023-03-12T21:44:27.664Z,3.60
2023-03-12T21:46:55.021Z,3.75
2023-03-12T21:49:24.474Z,4.30
2023-03-12T21:51:52.726Z,3.85
2023-03-12T21:54:23.297Z,4.60
2023-03-12T21:56:50.224Z,4.95
2023-03-12T21:59:16.870Z,5.22
2023-03-12T22:01:43.777Z,4.22
2023-03-12T22:04:16.387Z,4.75
2023-03-12T22:06:43.511Z,5.07
2023-03-12T22:09:12.983Z,4.45
2023-03-12T22:11:40.140Z,5.00
2023-03-12T22:14:07.289Z,3.72
2023-03-12T22:16:34.953Z,3.42
2023-03-12T22:19:05.402Z,4.30
2023-03-12T22:21:32.505Z,3.00
2023-03-12T22:24:03.260Z,3.78
2023-03-12T22:26:31.424Z,3.53
2023-03-12T22:29:02.694Z,3.92
2023-03-12T22:31:31.391Z,3.33
2023-03-12T22:34:05.621Z,4.60
2023-03-12T22:36:32.681Z,2.78
2023-03-12T22:39:02.574Z,3.35
2023-03-12T22:41:32.908Z,3.35
2023-03-12T22:44:11.316Z,2.17
2023-03-12T22:46:42.326Z,2.77
2023-03-12T22:49:13.076Z,3.03
2023-03-12T22:51:52.285Z,2.63
2023-03-12T22:54:28.339Z,2.47
2023-03-12T22:56:58.267Z,2.30
2023-03-12T22:59:33.096Z,3.80
2023-03-12T23:02:00.893Z,2.42
2023-03-12T23:04:34.905Z,2.85
2023-03-12T23:07:14.586Z,3.95
2023-03-12T23:09:59.257Z,2.00
2023-03-12T23:12:39.836Z,2.25
2023-03-12T23:18:05.640Z,1.75
2023-03-12T23:20:33.091Z,2.45
2023-03-12T23:23:00.250Z,1.52
2023-03-12T23:25:28.118Z,1.50
2023-03-12T23:27:54.850Z,2.00
2023-03-12T23:30:21.556Z,1.77
2023-03-12T23:32:48.385Z,1.35
2023-03-12T23:35:18.804Z,2.05
2023-03-12T23:37:49.549Z,2.13
2023-03-12T23:40:17.179Z,1.98
2023-03-12T23:42:44.892Z,1.58
2023-03-12T23:45:12.293Z,1.33
2023-03-12T23:47:39.039Z,1.35
2023-03-12T23:50:09.365Z,1.35
2023-03-12T23:52:36.171Z,2.05
2023-03-12T23:55:05.497Z,1.90
2023-03-12T23:57:32.374Z,2.08
2023-03-12T23:59:59.212Z,2.05
